Map

Track Data

SID SEASON NUMBER BASIN SUBBASIN NAME ISO_TIME NATURE LAT LON WMO_WIND WMO_PRES WMO_AGENCY TRACK_TYPE DIST2LAND LANDFALL IFLAG USA_AGENCY USA_ATCF_ID USA_LAT USA_LON USA_RECORD USA_STATUS USA_WIND USA_PRES USA_SSHS USA_R34_NE USA_R34_SE USA_R34_SW USA_R34_NW USA_R50_NE USA_R50_SE USA_R50_SW USA_R50_NW USA_R64_NE USA_R64_SE USA_R64_SW USA_R64_NW USA_POCI USA_ROCI USA_RMW USA_EYE TOKYO_LAT TOKYO_LON TOKYO_GRADE TOKYO_WIND TOKYO_PRES TOKYO_R50_DIR TOKYO_R50_LONG TOKYO_R50_SHORT TOKYO_R30_DIR TOKYO_R30_LONG TOKYO_R30_SHORT TOKYO_LAND CMA_LAT CMA_LON CMA_CAT CMA_WIND CMA_PRES HKO_LAT HKO_LON HKO_CAT HKO_WIND HKO_PRES NEWDELHI_LAT NEWDELHI_LON NEWDELHI_GRADE NEWDELHI_WIND NEWDELHI_PRES NEWDELHI_CI NEWDELHI_DP NEWDELHI_POCI REUNION_LAT REUNION_LON REUNION_TYPE REUNION_WIND REUNION_PRES REUNION_TNUM REUNION_CI REUNION_RMW REUNION_R34_NE REUNION_R34_SE REUNION_R34_SW REUNION_R34_NW REUNION_R50_NE REUNION_R50_SE REUNION_R50_SW REUNION_R50_NW REUNION_R64_NE REUNION_R64_SE REUNION_R64_SW REUNION_R64_NW BOM_LAT BOM_LON BOM_TYPE BOM_WIND BOM_PRES BOM_TNUM BOM_CI BOM_RMW BOM_R34_NE BOM_R34_SE BOM_R34_SW BOM_R34_NW BOM_R50_NE BOM_R50_SE BOM_R50_SW BOM_R50_NW BOM_R64_NE BOM_R64_SE BOM_R64_SW BOM_R64_NW BOM_ROCI BOM_POCI BOM_EYE BOM_POS_METHOD BOM_PRES_METHOD NADI_LAT NADI_LON NADI_CAT NADI_WIND NADI_PRES WELLINGTON_LAT WELLINGTON_LON WELLINGTON_WIND WELLINGTON_PRES DS824_LAT DS824_LON DS824_STAGE DS824_WIND DS824_PRES TD9636_LAT TD9636_LON TD9636_STAGE TD9636_WIND TD9636_PRES TD9635_LAT TD9635_LON TD9635_WIND TD9635_PRES TD9635_ROCI NEUMANN_LAT NEUMANN_LON NEUMANN_CLASS NEUMANN_WIND NEUMANN_PRES MLC_LAT MLC_LON MLC_CLASS MLC_WIND MLC_PRES USA_GUST BOM_GUST BOM_GUST_PER REUNION_GUST REUNION_GUST_PER USA_SEAHGT USA_SEARAD_NE USA_SEARAD_SE USA_SEARAD_SW USA_SEARAD_NW STORM_SPEED STORM_DIR
1909017S18111 1909 5 SI WA NOT_NAMED 1909-01-16 12:00:00 NR -18.3000 111.300 main 491 467 __________O___ -1 -18.3000 111.300 7 4 146
1909017S18111 1909 5 SI WA NOT_NAMED 1909-01-16 15:00:00 NR -18.4798 111.423 main 467 442 __________P___ -1 -18.4798 111.423 7 4 148
1909017S18111 1909 5 SI WA NOT_NAMED 1909-01-16 18:00:00 NR -18.6676 111.547 main 442 412 __________P___ -1 -18.6676 111.547 7 5 149
1909017S18111 1909 5 SI WA NOT_NAMED 1909-01-16 21:00:00 NR -18.8716 111.673 main 412 387 __________P___ -1 -18.8716 111.673 7 5 151
1909017S18111 1909 5 SI WA NOT_NAMED 1909-01-17 00:00:00 NR -19.1000 111.800 main 387 363 __________O___ -1 -19.1000 111.800 7 5 153
1909017S18111 1909 5 SI WA NOT_NAMED 1909-01-17 03:00:00 NR -19.3574 111.931 main 354 324 __________P___ -1 -19.3574 111.931 7 6 154
1909017S18111 1909 5 SI WA NOT_NAMED 1909-01-17 06:00:00 NR -19.6349 112.070 main 324 291 __________P___ -1 -19.6349 112.070 7 6 154
1909017S18111 1909 5 SI WA NOT_NAMED 1909-01-17 09:00:00 NR -19.9199 112.225 main 291 252 __________P___ -1 -19.9199 112.225 7 6 151
1909017S18111 1909 5 SI WA NOT_NAMED 1909-01-17 12:00:00 NR -20.2000 112.400 main 252 213 __________O___ -1 -20.2000 112.400 7 7 146
1909017S18111 1909 5 SI WA NOT_NAMED 1909-01-17 15:00:00 NR -20.4654 112.615 main 213 182 __________P___ -1 -20.4654 112.615 7 7 141
1909017S18111 1909 5 SI WA NOT_NAMED 1909-01-17 18:00:00 NR -20.7227 112.850 main 182 137 __________P___ -1 -20.7227 112.850 7 7 139
1909017S18111 1909 5 SI WA NOT_NAMED 1909-01-17 21:00:00 NR -20.9686 113.084 main 137 106 __________P___ -1 -20.9686 113.084 7 6 139
1909017S18111 1909 5 SI WA NOT_NAMED 1909-01-18 00:00:00 NR -21.2000 113.300 main 106 76 __________O___ -1 -21.2000 113.300 7 6 140
1909017S18111 1909 5 SI WA NOT_NAMED 1909-01-18 03:00:00 NR -21.4183 113.484 main 76 53 __________P___ -1 -21.4183 113.484 7 5 143
1909017S18111 1909 5 SI WA NOT_NAMED 1909-01-18 06:00:00 NR -21.6224 113.645 main 53 23 __________P___ -1 -21.6224 113.645 7 5 145
1909017S18111 1909 5 SI WA NOT_NAMED 1909-01-18 09:00:00 NR -21.8153 113.784 main 23 10 __________P___ -1 -21.8153 113.784 7 4 148
1909017S18111 1909 5 SI WA NOT_NAMED 1909-01-18 12:00:00 NR -22.0000 113.900 main 10 0 __________O___ -1 -22.0000 113.900 7 4 153
1909017S18111 1909 5 SI WA NOT_NAMED 1909-01-18 15:00:00 NR -22.1902 113.989 main 0 0 __________P___ -1 -22.1902 113.989 7 4 158
1909017S18111 1909 5 SI WA NOT_NAMED 1909-01-18 18:00:00 NR -22.3723 114.058 main 0 0 __________P___ -1 -22.3723 114.058 7 4 160
1909017S18111 1909 5 SI WA NOT_NAMED 1909-01-18 21:00:00 NR -22.5433 114.123 main 0 0 __________P___ -1 -22.5433 114.123 7 4 158
1909017S18111 1909 5 SI WA NOT_NAMED 1909-01-19 00:00:00 NR -22.7000 114.200 main 0 0 __________O___ -1 -22.7000 114.200 7 3 150
1909017S18111 1909 5 SI WA NOT_NAMED 1909-01-19 03:00:00 NR -22.8353 114.311 main 0 0 __________P___ -1 -22.8353 114.311 7 3 140
1909017S18111 1909 5 SI WA NOT_NAMED 1909-01-19 06:00:00 NR -22.9575 114.435 main 0 0 __________P___ -1 -22.9575 114.435 7 3 135
1909017S18111 1909 5 SI WA NOT_NAMED 1909-01-19 09:00:00 NR -23.0759 114.567 main 0 0 __________P___ -1 -23.0759 114.567 7 3 135
1909017S18111 1909 5 SI WA NOT_NAMED 1909-01-19 12:00:00 NR -23.2000 114.700 main 0 0 __________O___ -1 -23.2000 114.700 7 3 142
1909017S18111 1909 5 SI WA NOT_NAMED 1909-01-19 15:00:00 NR -23.3179 114.773 main 0 0 __________P___ -1 -23.3179 114.773 7 3 150
1909017S18111 1909 5 SI WA NOT_NAMED 1909-01-19 18:00:00 NR -23.4466 114.854 main 0 0 __________P___ -1 -23.4466 114.854 7 3 145
1909017S18111 1909 5 SI WA NOT_NAMED 1909-01-19 21:00:00 NR -23.6020 114.983 main 0 0 __________P___ -1 -23.6020 114.983 7 5 138
1909017S18111 1909 5 SI WA NOT_NAMED 1909-01-20 00:00:00 NR -23.8000 115.200 main 0 0 __________O___ -1 -23.8000 115.200 7 7 132
1909017S18111 1909 5 SI WA NOT_NAMED 1909-01-20 03:00:00 NR -24.0738 115.559 main 0 0 __________P___ -1 -24.0738 115.559 7 9 128
1909017S18111 1909 5 SI WA NOT_NAMED 1909-01-20 06:00:00 NR -24.3859 116.008 main 0 0 __________P___ -1 -24.3859 116.008 7 11 126
1909017S18111 1909 5 SI WA NOT_NAMED 1909-01-20 09:00:00 NR -24.7050 116.503 main 0 0 __________P___ -1 -24.7050 116.503 7 11 124
1909017S18111 1909 5 SI WA NOT_NAMED 1909-01-20 12:00:00 NR -25.0000 117.000 main 0 0 __________O___ -1 -25.0000 117.000 7 9 124
1909017S18111 1909 5 SI WA NOT_NAMED 1909-01-20 15:00:00 NR -25.2085 117.318 main 0 0 __________P___ -1 -25.2085 117.318 7 7 124
1909017S18111 1909 5 SI WA NOT_NAMED 1909-01-20 18:00:00 NR -25.3934 117.645 main 0 0 __________P___ -1 -25.3934 117.645 7 8 119
1909017S18111 1909 5 SI WA NOT_NAMED 1909-01-20 21:00:00 NR -25.5819 118.075 main 0 0 __________P___ -1 -25.5819 118.075 7 10 113
1909017S18111 1909 5 SI WA NOT_NAMED 1909-01-21 00:00:00 NR -25.8000 118.700 main 0 0 __________O___ -1 -25.8000 118.700 7 15 111
1909017S18111 1909 5 SI WA NOT_NAMED 1909-01-21 03:00:00 NR -26.1066 119.630 main 0 0 __________P___ -1 -26.1066 119.630 7 20 109
1909017S18111 1909 5 SI WA NOT_NAMED 1909-01-21 06:00:00 NR -26.4337 120.763 main 0 0 __________P___ -1 -26.4337 120.763 7 22 107
1909017S18111 1909 5 SI WA NOT_NAMED 1909-01-21 09:00:00 NR -26.7434 122.015 main 0 0 __________P___ -1 -26.7434 122.015 7 23 104
1909017S18111 1909 5 SI WA NOT_NAMED 1909-01-21 12:00:00 NR -27.0000 123.300 main 0 0 __________O___ -1 -27.0000 123.300 7 23 101
1909017S18111 1909 5 SI WA NOT_NAMED 1909-01-21 15:00:00 NR -27.1796 124.548 main 0 0 __________P___ -1 -27.1796 124.548 7 22 98
1909017S18111 1909 5 SI WA NOT_NAMED 1909-01-21 18:00:00 NR -27.2934 125.755 main 0 0 __________P___ -1 -27.2934 125.755 7 21 95
1909017S18111 1909 5 SI WA NOT_NAMED 1909-01-21 21:00:00 NR -27.3607 126.934 main 0 0 __________P___ -1 -27.3607 126.934 7 21 93
1909017S18111 1909 5 SI WA NOT_NAMED 1909-01-22 00:00:00 NR -27.4000 128.100 main 0 __________O___ -1 -27.4000 128.100 7 21 92

About IBTrACS Database

This database is a web-friendly format of International Best Track Archive for Climate Stewardship (IBTrACS), a global best track data archive curated by NOAA dating back to 1842.

Updated: 2021-10-19